This is the latest recevied weather packets stored in our database for station/object IZ3TCG-13. If no packets are shown the sender has not sent any weather packets the latest 10 day(s).
| Time | Temp. | Humidity | Pressure | Rain* | Wind** | Luminosity | Snow |
|---|---|---|---|---|---|---|---|
| 1777232644 | 18.33° C | 80% | 1013.2 hPa | 0 mm | - | - | - |
| 1777232163 | 18.33° C | 81% | 1012.8 hPa | 0 mm | - | - | - |
| 1777230004 | 19.44° C | 77% | 1012.6 hPa | 0 mm | - | - | - |
| 1777229044 | 19.44° C | 75% | 1012.6 hPa | 0 mm | - | - | - |
| 1777228083 | 20° C | 71% | 1012.5 hPa | 0 mm | - | - | - |
| 1777222563 | 23.33° C | 55% | 1011.8 hPa | 0 mm | - | - | - |
| 1777222083 | 23.89° C | 54% | 1011.8 hPa | 0 mm | - | - | - |
| 1777219444 | 25° C | 53% | 1012.2 hPa | 0 mm | - | - | - |
| 1777219204 | 25° C | 52% | 1011.8 hPa | 0 mm | - | - | - |
| 1777218963 | 25° C | 50% | 1012.1 hPa | 0 mm | - | - | - |
| 1777215604 | 26.11° C | 45% | 1012.2 hPa | 0 mm | - | - | - |
| 1777214163 | 25.56° C | 48% | 1012.3 hPa | 0 mm | - | - | - |
| 1777213684 | 26.11° C | 47% | 1012.2 hPa | 0 mm | - | - | - |
| 1777212004 | 25.56° C | 48% | 1012.2 hPa | 0 mm | - | - | - |
| 1777211523 | 26.11° C | 50% | 1012.2 hPa | 0 mm | - | - | - |
| 1777210083 | 26.11° C | 45% | 1012.6 hPa | 0 mm | - | - | - |
| 1777209843 | 25.56° C | 47% | 1012.7 hPa | 0 mm | - | - | - |
| 1777209364 | 25° C | 49% | 1012.7 hPa | 0 mm | - | - | - |
| 1777208884 | 25° C | 48% | 1012.7 hPa | 0 mm | - | - | - |
| 1777208404 | 25° C | 51% | 1012.7 hPa | 0 mm | - | - | - |
| 1777206243 | 25.56° C | 45% | 1013 hPa | 0 mm | - | - | - |
| 1777204324 | 25.56° C | 47% | 1012.8 hPa | 0 mm | - | - | - |
| 1777202163 | 26.67° C | 44% | 1013 hPa | 0 mm | - | - | - |
| 1777198323 | 24.44° C | 51% | 1013.3 hPa | 0 mm | - | - | - |
| 1777197123 | 25° C | 46% | 1014.6 hPa | 0 mm | - | - | - |
* Rain latest hour (hover to see other rain measurements)
** Current wind speed in m/s (hover to see current wind gust speed)